createdAt,value
2019-05-14T00:01:22.184Z,103168.08
2019-05-14T00:03:51.600Z,103167.19
2019-05-14T00:06:21.923Z,103171.55
2019-05-14T00:08:52.158Z,103173.28
2019-05-14T00:11:21.935Z,103175.02
2019-05-14T00:13:52.011Z,103172.81
2019-05-14T00:16:23.838Z,103171.53
2019-05-14T00:18:51.221Z,103174.53
2019-05-14T00:23:51.393Z,103179.23
2019-05-14T00:26:21.484Z,103173.59
2019-05-14T00:28:51.233Z,103173.17
2019-05-14T00:31:21.388Z,103172.31
2019-05-14T00:33:51.301Z,103169.69
2019-05-14T00:36:21.513Z,103170.55
2019-05-14T00:38:51.295Z,103166.25
2019-05-14T00:41:21.490Z,103170.14
2019-05-14T00:43:51.389Z,103170.14
2019-05-14T00:46:21.170Z,103167.12
2019-05-14T00:48:51.408Z,103161.48
2019-05-14T00:51:21.464Z,103158.47
2019-05-14T00:53:51.567Z,103164.94
2019-05-14T00:56:21.630Z,103158.77
2019-05-14T00:58:51.941Z,103164.84
2019-05-14T01:01:21.471Z,103170.88
2019-05-14T01:04:02.916Z,103171.31
2019-05-14T01:06:31.643Z,103170.28
2019-05-14T01:09:01.534Z,103170.24
2019-05-14T01:11:31.607Z,103174.58
2019-05-14T01:14:21.092Z,103159.95
2019-05-14T01:16:51.413Z,103159.95
2019-05-14T01:19:21.397Z,103165.59
2019-05-14T01:22:31.657Z,103161.64
2019-05-14T01:25:01.561Z,103163.38
2019-05-14T01:27:31.716Z,103162.89
2019-05-14T01:30:02.105Z,103168.53
2019-05-14T01:32:31.496Z,103168.09
2019-05-14T01:35:01.405Z,103168.98
2019-05-14T01:37:31.105Z,103167.59
2019-05-14T01:40:01.215Z,103168.03
2019-05-14T01:42:32.112Z,103168.00
2019-05-14T01:45:02.566Z,103157.41
2019-05-14T01:47:31.847Z,103157.45
2019-05-14T01:50:02.146Z,103152.32
2019-05-14T01:52:31.826Z,103154.10
2019-05-14T01:55:02.180Z,103157.56
2019-05-14T01:57:31.176Z,103157.90
2019-05-14T02:00:02.324Z,103163.81
2019-05-14T02:02:31.321Z,103164.91
2019-05-14T02:05:02.036Z,103165.68
2019-05-14T02:07:31.443Z,103163.47
2019-05-14T02:10:01.149Z,103160.56
2019-05-14T02:12:31.587Z,103166.24
2019-05-14T02:15:01.931Z,103164.41
2019-05-14T02:17:31.789Z,103164.47
2019-05-14T02:20:02.052Z,103162.03
2019-05-14T02:22:32.010Z,103155.73
2019-05-14T02:25:02.344Z,103154.02
2019-05-14T02:27:34.766Z,103151.16
2019-05-14T02:32:29.959Z,103148.59
2019-05-14T02:35:20.174Z,103150.22
2019-05-14T02:37:50.491Z,103150.22
2019-05-14T02:41:00.028Z,103148.95
2019-05-14T02:43:29.431Z,103154.55
2019-05-14T02:46:10.663Z,103162.39
2019-05-14T02:48:29.549Z,103161.09
2019-05-14T02:50:59.778Z,103164.03
2019-05-14T02:54:09.881Z,103161.84
2019-05-14T02:56:40.249Z,103165.72
2019-05-14T02:59:09.987Z,103162.27
2019-05-14T03:01:40.521Z,103161.44
2019-05-14T03:04:09.351Z,103154.40
2019-05-14T03:06:39.696Z,103147.94
2019-05-14T03:09:09.908Z,103143.61
2019-05-14T03:11:40.436Z,103138.46
2019-05-14T03:14:09.326Z,103134.86
2019-05-14T03:16:40.168Z,103142.26
2019-05-14T03:19:09.949Z,103143.09
2019-05-14T03:21:39.728Z,103142.69
2019-05-14T03:24:09.657Z,103147.02
2019-05-14T03:26:39.815Z,103155.95
2019-05-14T03:29:10.054Z,103149.42
2019-05-14T03:31:53.310Z,103144.38
2019-05-14T03:34:22.620Z,103142.13
2019-05-14T03:36:53.202Z,103138.06
2019-05-14T03:39:21.730Z,103134.58
2019-05-14T03:41:50.242Z,103136.62
2019-05-14T03:44:20.128Z,103137.85
2019-05-14T03:46:54.724Z,103142.05
2019-05-14T03:49:19.799Z,103142.95
2019-05-14T03:51:49.826Z,103141.72
2019-05-14T03:54:19.475Z,103141.41
2019-05-14T03:56:49.710Z,103143.20
2019-05-14T03:59:19.905Z,103145.86
2019-05-14T04:01:51.186Z,103147.66
2019-05-14T04:04:19.570Z,103149.83
2019-05-14T04:07:22.499Z,103155.45
2019-05-14T04:10:24.073Z,103151.97
2019-05-14T04:13:29.985Z,103151.13
2019-05-14T04:15:59.742Z,103153.02
2019-05-14T04:21:48.824Z,103148.75
2019-05-14T04:24:15.567Z,103156.14
2019-05-14T04:27:23.897Z,103157.52
2019-05-14T04:30:32.212Z,103163.16
2019-05-14T04:33:33.774Z,103163.70
2019-05-14T04:36:02.075Z,103169.84
2019-05-14T04:38:30.443Z,103166.91
2019-05-14T04:40:59.891Z,103169.94
2019-05-14T04:43:29.622Z,103173.45
2019-05-14T04:45:59.354Z,103164.48
2019-05-14T04:48:37.145Z,103164.98
2019-05-14T04:51:00.534Z,103167.28
2019-05-14T04:53:30.808Z,103155.25
2019-05-14T04:56:00.050Z,103163.98
2019-05-14T04:58:29.826Z,103160.66
2019-05-14T05:01:00.645Z,103166.78
2019-05-14T05:18:49.588Z,103174.59
2019-05-14T05:24:20.300Z,103172.25
2019-05-14T05:36:52.075Z,103171.59
2019-05-14T05:39:20.699Z,103179.31
2019-05-14T05:41:49.315Z,103179.94
2019-05-14T05:44:32.481Z,103183.80
2019-05-14T05:47:00.736Z,103181.53
2019-05-14T05:49:29.330Z,103177.12
2019-05-14T06:01:21.812Z,103183.61
2019-05-14T06:07:02.388Z,103177.35
2019-05-14T06:09:29.076Z,103183.39
2019-05-14T06:20:18.943Z,103178.56
2019-05-14T06:25:36.136Z,103177.75
2019-05-14T06:28:04.403Z,103176.27
2019-05-14T06:33:39.350Z,103172.41
2019-05-14T06:36:08.596Z,103176.45
2019-05-14T06:38:38.815Z,103180.94
2019-05-14T06:44:18.720Z,103174.55
2019-05-14T06:49:44.998Z,103167.36
2019-05-14T06:52:13.281Z,103177.86
2019-05-14T06:54:41.567Z,103181.42
2019-05-14T06:57:09.828Z,103179.41
2019-05-14T07:02:28.479Z,103185.20
2019-05-14T07:04:58.814Z,103188.19
2019-05-14T07:07:29.693Z,103191.80
2019-05-14T07:09:58.210Z,103189.64
2019-05-14T07:18:19.358Z,103185.42
2019-05-14T07:23:50.693Z,103175.72
2019-05-14T07:29:34.888Z,103168.02
2019-05-14T07:32:03.174Z,103167.62
2019-05-14T07:35:12.280Z,103171.31
2019-05-14T07:40:52.602Z,103169.20
2019-05-14T07:49:15.655Z,103160.72
2019-05-14T07:55:02.526Z,103159.07
2019-05-14T07:57:49.934Z,103161.70
2019-05-14T08:03:19.288Z,103161.09
2019-05-14T08:05:48.298Z,103156.10
2019-05-14T08:18:52.157Z,103148.02
2019-05-14T08:24:39.616Z,103150.59
2019-05-14T08:27:08.510Z,103144.80
2019-05-14T08:29:54.988Z,103123.67
2019-05-14T08:32:23.273Z,103123.67
2019-05-14T08:38:45.350Z,103132.97
2019-05-14T08:41:59.542Z,103132.20
2019-05-14T08:47:29.419Z,103116.87
2019-05-14T08:52:54.325Z,103117.69
2019-05-14T08:58:39.776Z,103124.02
2019-05-14T09:01:08.389Z,103122.21
2019-05-14T09:03:39.333Z,103118.45
2019-05-14T09:06:09.114Z,103117.29
2019-05-14T09:08:39.012Z,103104.86
2019-05-14T09:11:09.972Z,103104.45
2019-05-14T09:13:38.615Z,103110.77
2019-05-14T09:22:02.490Z,103095.73
2019-05-14T09:24:30.789Z,103100.92
2019-05-14T09:26:59.426Z,103100.47
2019-05-14T09:29:29.706Z,103090.19
2019-05-14T09:31:59.397Z,103094.02
2019-05-14T09:37:19.212Z,103095.08
2019-05-14T09:39:48.850Z,103092.50
2019-05-14T09:42:50.927Z,103087.78
2019-05-14T09:45:19.210Z,103093.70
2019-05-14T09:47:50.542Z,103089.26
2019-05-14T09:53:38.567Z,103081.42
2019-05-14T09:59:32.135Z,103082.81
2019-05-14T10:04:53.670Z,103075.73
2019-05-14T10:07:55.467Z,103075.73
2019-05-14T10:10:23.827Z,103072.19
2019-05-14T10:12:56.877Z,103049.12
2019-05-14T10:18:28.557Z,103050.21
2019-05-14T10:23:47.245Z,103040.48
2019-05-14T10:26:18.345Z,103035.69
2019-05-14T10:29:28.579Z,103017.39
2019-05-14T10:31:59.237Z,103033.34
2019-05-14T10:34:28.704Z,103028.80
2019-05-14T10:37:10.173Z,103017.91
2019-05-14T10:39:39.323Z,103013.75
2019-05-14T10:42:29.390Z,103021.84
2019-05-14T10:50:57.305Z,103009.09
2019-05-14T10:54:16.862Z,103031.45
2019-05-14T10:57:13.940Z,103027.45
2019-05-14T10:59:42.243Z,103018.62
2019-05-14T11:02:12.163Z,103023.77
2019-05-14T11:07:10.615Z,103006.03
2019-05-14T11:13:03.567Z,103014.67
2019-05-14T11:15:31.932Z,103014.22
2019-05-14T11:18:40.528Z,103001.16
2019-05-14T11:24:21.100Z,103004.41
2019-05-14T11:26:49.395Z,103009.84
2019-05-14T11:29:19.744Z,103016.52
2019-05-14T11:32:29.244Z,102991.59
2019-05-14T11:35:19.186Z,102989.98
2019-05-14T11:37:48.026Z,103000.69
2019-05-14T11:43:03.370Z,103000.41
2019-05-14T11:48:20.699Z,102995.44
2019-05-14T11:51:09.166Z,102986.89
2019-05-14T11:53:38.688Z,102986.89
2019-05-14T11:56:08.916Z,102973.50
2019-05-14T12:02:02.859Z,102983.38
2019-05-14T12:04:31.481Z,102970.33
2019-05-14T12:10:09.045Z,102946.62
2019-05-14T12:12:37.541Z,102970.06
2019-05-14T12:15:48.328Z,102952.41
2019-05-14T12:18:18.390Z,102944.66
2019-05-14T12:21:08.764Z,102963.62
2019-05-14T12:24:13.718Z,102955.41
2019-05-14T12:35:20.319Z,102915.88
2019-05-14T12:37:48.892Z,102933.55
2019-05-14T12:47:35.271Z,102919.87
2019-05-14T12:53:19.935Z,102923.02
2019-05-14T12:58:34.653Z,102918.80
2019-05-14T13:03:48.522Z,102909.42
2019-05-14T13:06:19.099Z,102922.64
2019-05-14T13:08:49.155Z,102904.63
2019-05-14T13:11:17.491Z,102904.39
2019-05-14T13:13:49.006Z,102904.45
2019-05-14T13:16:19.257Z,102900.13
2019-05-14T13:18:49.887Z,102891.48
2019-05-14T13:24:04.739Z,102879.55
2019-05-14T13:26:33.086Z,102899.48
2019-05-14T13:29:01.421Z,102872.42
2019-05-14T13:31:29.691Z,102871.02
2019-05-14T13:34:39.709Z,102872.20
2019-05-14T13:40:50.308Z,102864.31
2019-05-14T13:46:05.126Z,102865.44
2019-05-14T13:49:14.536Z,102853.86
2019-05-14T13:52:03.787Z,102871.23
2019-05-14T13:54:32.101Z,102855.23
2019-05-14T13:59:49.291Z,102852.89
2019-05-14T14:08:10.804Z,102839.04
2019-05-14T14:10:44.795Z,102833.12
2019-05-14T14:13:11.230Z,102846.08
2019-05-14T14:15:39.407Z,102838.66
2019-05-14T14:18:07.731Z,102832.50
2019-05-14T14:20:36.073Z,102842.64
2019-05-14T14:23:39.318Z,102838.72
2019-05-14T14:26:09.485Z,102834.16
2019-05-14T14:28:52.703Z,102835.77
2019-05-14T14:34:22.556Z,102839.02
2019-05-14T14:37:10.140Z,102844.36
2019-05-14T14:39:38.397Z,102829.95
2019-05-14T14:45:29.261Z,102817.71
2019-05-14T14:51:41.856Z,102826.42
2019-05-14T14:54:10.569Z,102822.10
2019-05-14T14:56:52.695Z,102829.27
2019-05-14T15:02:53.539Z,102823.55
2019-05-14T15:05:21.898Z,102827.11
2019-05-14T15:07:50.518Z,102821.38
2019-05-14T15:15:52.743Z,102838.62
2019-05-14T15:21:09.815Z,102824.73
2019-05-14T15:23:42.533Z,102822.16
2019-05-14T15:26:23.588Z,102821.34
2019-05-14T15:28:51.887Z,102827.41
2019-05-14T15:34:08.945Z,102821.89
2019-05-14T15:36:41.337Z,102825.63
2019-05-14T15:42:13.681Z,102819.75
2019-05-14T15:44:48.992Z,102821.48
2019-05-14T15:47:11.607Z,102826.76
2019-05-14T15:49:38.982Z,102811.14
2019-05-14T15:52:08.587Z,102828.17
2019-05-14T15:54:46.410Z,102817.70
2019-05-14T15:57:08.983Z,102804.83
2019-05-14T15:59:39.097Z,102808.41
2019-05-14T16:02:41.055Z,102807.50
2019-05-14T16:05:43.525Z,102806.21
2019-05-14T16:08:11.904Z,102816.84
2019-05-14T16:10:40.224Z,102803.37
2019-05-14T16:13:09.016Z,102795.58
2019-05-14T16:22:02.223Z,102789.52
2019-05-14T16:27:51.826Z,102785.52
2019-05-14T16:30:20.125Z,102769.32
2019-05-14T16:33:29.222Z,102784.54
2019-05-14T16:38:44.094Z,102780.64
2019-05-14T16:41:12.394Z,102770.61
2019-05-14T16:43:40.656Z,102753.83
2019-05-14T16:46:09.790Z,102773.98
2019-05-14T16:49:12.895Z,102765.66
2019-05-14T16:51:41.018Z,102758.59
2019-05-14T16:54:29.486Z,102763.20
2019-05-14T16:57:11.336Z,102769.75
2019-05-14T16:59:53.808Z,102781.52
2019-05-14T17:02:22.040Z,102780.56
2019-05-14T17:07:45.140Z,102768.20
2019-05-14T17:10:49.758Z,102762.25
2019-05-14T17:13:18.076Z,102770.27
2019-05-14T17:15:48.127Z,102773.26
2019-05-14T17:18:19.117Z,102781.58
2019-05-14T17:20:48.705Z,102761.01
2019-05-14T17:26:24.813Z,102748.77
2019-05-14T17:28:53.099Z,102761.64
2019-05-14T17:31:21.311Z,102776.52
2019-05-14T17:33:49.629Z,102765.95
2019-05-14T17:36:18.759Z,102772.38
2019-05-14T17:39:21.273Z,102768.08
2019-05-14T17:45:24.999Z,102771.65
2019-05-14T17:48:12.724Z,102770.83
2019-05-14T17:50:44.630Z,102770.83
2019-05-14T17:53:11.511Z,102777.80
2019-05-14T17:55:46.658Z,102768.53
2019-05-14T18:04:02.405Z,102755.70
2019-05-14T18:06:30.672Z,102743.78
2019-05-14T18:08:59.005Z,102751.41
2019-05-14T18:11:28.356Z,102753.29
2019-05-14T18:13:58.960Z,102757.42
2019-05-14T18:19:37.864Z,102736.20
2019-05-14T18:22:05.700Z,102738.05
2019-05-14T18:24:33.968Z,102745.77
2019-05-14T18:29:51.205Z,102734.98
2019-05-14T18:32:19.476Z,102734.64
2019-05-14T18:34:48.675Z,102737.26
2019-05-14T18:37:18.338Z,102731.98
2019-05-14T18:39:48.343Z,102731.09
2019-05-14T18:42:19.065Z,102729.84
2019-05-14T18:44:49.762Z,102721.34
2019-05-14T18:47:20.133Z,102734.23
2019-05-14T18:49:48.731Z,102739.91
2019-05-14T18:52:18.530Z,102737.02
2019-05-14T18:54:48.318Z,102726.68
2019-05-14T18:57:18.070Z,102736.33
2019-05-14T18:59:49.311Z,102739.08
2019-05-14T19:02:18.438Z,102735.89
2019-05-14T19:08:28.611Z,102736.00
2019-05-14T19:11:15.977Z,102739.81
2019-05-14T19:13:45.069Z,102736.37
2019-05-14T19:16:13.333Z,102735.33
2019-05-14T19:21:48.846Z,102745.44
2019-05-14T19:24:18.865Z,102742.98
2019-05-14T19:26:49.420Z,102745.42
2019-05-14T19:32:28.259Z,102744.48
2019-05-14T19:34:57.715Z,102745.42
2019-05-14T19:37:26.241Z,102734.97
2019-05-14T19:39:58.741Z,102735.47
2019-05-14T19:48:38.245Z,102753.31
2019-05-14T19:51:08.198Z,102756.85
2019-05-14T19:53:39.000Z,102751.38
2019-05-14T19:56:06.606Z,102753.95
2019-05-14T19:58:34.885Z,102754.39
2019-05-14T20:06:53.549Z,102752.52
2019-05-14T20:09:21.825Z,102753.20
2019-05-14T20:11:50.094Z,102753.72
2019-05-14T20:14:18.377Z,102751.28
2019-05-14T20:19:42.183Z,102746.64
2019-05-14T20:22:10.458Z,102753.98
2019-05-14T20:24:41.531Z,102748.92
2019-05-14T20:27:12.120Z,102742.44
2019-05-14T20:29:38.756Z,102738.19
2019-05-14T20:35:30.849Z,102739.08
2019-05-14T20:37:49.357Z,102736.97
2019-05-14T20:43:31.720Z,102741.09
2019-05-14T20:45:59.999Z,102738.94
2019-05-14T20:48:28.270Z,102735.47
2019-05-14T20:50:58.481Z,102738.97
2019-05-14T20:56:15.407Z,102741.75
2019-05-14T21:01:41.919Z,102742.31
2019-05-14T21:04:10.227Z,102736.25
2019-05-14T21:06:39.408Z,102733.29
2019-05-14T21:09:07.711Z,102740.77
2019-05-14T21:11:38.243Z,102745.98
2019-05-14T21:14:26.328Z,102730.78
2019-05-14T21:19:56.484Z,102735.64
2019-05-14T21:22:24.792Z,102729.20
2019-05-14T21:27:52.062Z,102730.60
2019-05-14T21:33:39.013Z,102735.37
2019-05-14T21:36:09.428Z,102728.08
2019-05-14T21:44:31.032Z,102728.24
2019-05-14T21:46:59.353Z,102731.73
2019-05-14T21:56:06.848Z,102718.76
2019-05-14T22:04:58.240Z,102712.81
2019-05-14T22:07:27.647Z,102711.57
2019-05-14T22:09:58.240Z,102709.80
2019-05-14T22:12:48.774Z,102711.95
2019-05-14T22:15:18.480Z,102711.14
2019-05-14T22:17:48.961Z,102705.95
2019-05-14T22:20:19.255Z,102708.11
2019-05-14T22:22:48.356Z,102705.53
2019-05-14T22:25:19.021Z,102704.24
2019-05-14T22:28:12.324Z,102706.83
2019-05-14T22:30:38.868Z,102707.27
2019-05-14T22:33:08.542Z,102705.13
2019-05-14T22:38:35.830Z,102700.01
2019-05-14T22:44:00.445Z,102704.41
2019-05-14T22:49:16.053Z,102703.56
2019-05-14T22:51:44.350Z,102697.51
2019-05-14T22:54:12.697Z,102694.92
2019-05-14T22:59:28.518Z,102691.06
2019-05-14T23:01:58.837Z,102694.55
2019-05-14T23:04:28.810Z,102694.09
2019-05-14T23:06:58.671Z,102689.34
2019-05-14T23:09:26.799Z,102689.81
2019-05-14T23:11:55.078Z,102691.55
2019-05-14T23:14:23.375Z,102689.87
2019-05-14T23:16:54.203Z,102686.88
2019-05-14T23:19:22.499Z,102679.55
2019-05-14T23:21:50.785Z,102686.89
2019-05-14T23:34:00.656Z,102668.30
2019-05-14T23:36:29.271Z,102662.67
2019-05-14T23:39:38.329Z,102667.88
2019-05-14T23:42:08.968Z,102669.59
2019-05-14T23:44:38.240Z,102666.95
2019-05-14T23:47:08.271Z,102669.05
2019-05-14T23:53:00.069Z,102663.84
2019-05-14T23:55:49.246Z,102660.86
2019-05-14T23:58:20.580Z,102660.45
